sensor_id;sensor_type;location;lat;lon;timestamp;pressure;altitude;pressure_sealevel;temperature;humidity
55301;BME280;58302;51.446;-2.000;2024-01-16T00:00:19;101155.00;;;-7.31;100.00
55301;BME280;58302;51.446;-2.000;2024-01-16T00:02:45;101148.59;;;-7.38;100.00
55301;BME280;58302;51.446;-2.000;2024-01-16T00:05:11;101139.72;;;-7.37;100.00
55301;BME280;58302;51.446;-2.000;2024-01-16T00:07:38;101140.16;;;-7.32;100.00
55301;BME280;58302;51.446;-2.000;2024-01-16T00:10:09;101134.63;;;-7.29;100.00
55301;BME280;58302;51.446;-2.000;2024-01-16T00:12:35;101123.91;;;-7.27;100.00
55301;BME280;58302;51.446;-2.000;2024-01-16T00:15:01;101117.53;;;-7.25;100.00
55301;BME280;58302;51.446;-2.000;2024-01-16T00:17:27;101118.38;;;-7.24;100.00
55301;BME280;58302;51.446;-2.000;2024-01-16T00:19:53;101113.94;;;-7.24;100.00
55301;BME280;58302;51.446;-2.000;2024-01-16T00:22:20;101102.78;;;-7.27;100.00
55301;BME280;58302;51.446;-2.000;2024-01-16T00:24:46;101098.03;;;-7.33;100.00
55301;BME280;58302;51.446;-2.000;2024-01-16T00:27:12;101097.34;;;-7.35;100.00
55301;BME280;58302;51.446;-2.000;2024-01-16T00:29:38;101093.00;;;-7.36;100.00
55301;BME280;58302;51.446;-2.000;2024-01-16T00:32:04;101086.66;;;-7.34;100.00
55301;BME280;58302;51.446;-2.000;2024-01-16T00:34:30;101075.41;;;-7.36;100.00
55301;BME280;58302;51.446;-2.000;2024-01-16T00:36:56;101078.34;;;-7.29;100.00
55301;BME280;58302;51.446;-2.000;2024-01-16T00:39:22;101079.50;;;-7.12;100.00
55301;BME280;58302;51.446;-2.000;2024-01-16T00:41:48;101069.75;;;-7.12;100.00
55301;BME280;58302;51.446;-2.000;2024-01-16T00:44:14;101063.91;;;-7.16;100.00
55301;BME280;58302;51.446;-2.000;2024-01-16T00:46:40;101057.25;;;-7.20;100.00
55301;BME280;58302;51.446;-2.000;2024-01-16T00:49:06;101048.47;;;-7.20;100.00
55301;BME280;58302;51.446;-2.000;2024-01-16T00:51:33;101039.72;;;-7.21;100.00
55301;BME280;58302;51.446;-2.000;2024-01-16T00:54:00;101038.34;;;-7.25;100.00
55301;BME280;58302;51.446;-2.000;2024-01-16T00:56:26;101038.34;;;-7.25;100.00
55301;BME280;58302;51.446;-2.000;2024-01-16T00:58:58;101032.91;;;-7.23;100.00
55301;BME280;58302;51.446;-2.000;2024-01-16T01:01:24;101026.25;;;-7.18;100.00
55301;BME280;58302;51.446;-2.000;2024-01-16T01:03:51;101021.66;;;-7.16;100.00
55301;BME280;58302;51.446;-2.000;2024-01-16T01:06:17;101011.50;;;-7.10;100.00
55301;BME280;58302;51.446;-2.000;2024-01-16T01:08:43;101018.88;;;-7.04;100.00
55301;BME280;58302;51.446;-2.000;2024-01-16T01:11:11;101005.69;;;-7.04;100.00
55301;BME280;58302;51.446;-2.000;2024-01-16T01:13:37;101000.28;;;-7.03;100.00
55301;BME280;58302;51.446;-2.000;2024-01-16T01:16:04;101000.00;;;-7.00;100.00
55301;BME280;58302;51.446;-2.000;2024-01-16T01:18:32;100999.44;;;-6.94;100.00
55301;BME280;58302;51.446;-2.000;2024-01-16T01:20:58;101004.16;;;-6.87;100.00
55301;BME280;58302;51.446;-2.000;2024-01-16T01:23:24;100995.56;;;-6.80;100.00
55301;BME280;58302;51.446;-2.000;2024-01-16T01:25:51;100993.88;;;-6.71;100.00
55301;BME280;58302;51.446;-2.000;2024-01-16T01:28:17;100985.00;;;-6.70;100.00
55301;BME280;58302;51.446;-2.000;2024-01-16T01:30:43;100977.75;;;-6.78;100.00
55301;BME280;58302;51.446;-2.000;2024-01-16T01:33:09;100975.94;;;-6.87;100.00
55301;BME280;58302;51.446;-2.000;2024-01-16T01:35:36;100984.16;;;-6.90;100.00
55301;BME280;58302;51.446;-2.000;2024-01-16T01:38:02;100981.09;;;-6.85;100.00
55301;BME280;58302;51.446;-2.000;2024-01-16T01:40:28;100963.59;;;-6.86;100.00
55301;BME280;58302;51.446;-2.000;2024-01-16T01:42:54;100962.34;;;-6.92;100.00
55301;BME280;58302;51.446;-2.000;2024-01-16T01:45:20;100960.50;;;-7.01;100.00
55301;BME280;58302;51.446;-2.000;2024-01-16T01:47:47;100965.63;;;-7.09;100.00
55301;BME280;58302;51.446;-2.000;2024-01-16T01:50:13;100962.72;;;-7.16;100.00
55301;BME280;58302;51.446;-2.000;2024-01-16T01:52:40;100957.72;;;-7.19;100.00
55301;BME280;58302;51.446;-2.000;2024-01-16T01:55:13;100950.47;;;-7.27;100.00
55301;BME280;58302;51.446;-2.000;2024-01-16T01:57:40;100959.63;;;-7.31;100.00
55301;BME280;58302;51.446;-2.000;2024-01-16T02:00:26;100953.41;;;-7.39;100.00
55301;BME280;58302;51.446;-2.000;2024-01-16T02:02:53;100945.19;;;-7.46;100.00
55301;BME280;58302;51.446;-2.000;2024-01-16T02:05:20;100952.41;;;-7.48;100.00
55301;BME280;58302;51.446;-2.000;2024-01-16T02:07:46;100944.88;;;-7.53;100.00
55301;BME280;58302;51.446;-2.000;2024-01-16T02:10:12;100936.84;;;-7.51;100.00
55301;BME280;58302;51.446;-2.000;2024-01-16T02:12:38;100935.56;;;-7.47;100.00
55301;BME280;58302;51.446;-2.000;2024-01-16T02:15:05;100936.56;;;-7.48;100.00
55301;BME280;58302;51.446;-2.000;2024-01-16T02:17:31;100931.56;;;-7.51;100.00
55301;BME280;58302;51.446;-2.000;2024-01-16T02:19:56;100932.13;;;-7.57;100.00
55301;BME280;58302;51.446;-2.000;2024-01-16T02:22:25;100923.47;;;-7.59;100.00
55301;BME280;58302;51.446;-2.000;2024-01-16T02:24:54;100932.66;;;-7.54;100.00
55301;BME280;58302;51.446;-2.000;2024-01-16T02:27:21;100926.53;;;-7.54;100.00
55301;BME280;58302;51.446;-2.000;2024-01-16T02:29:47;100924.88;;;-7.55;100.00
55301;BME280;58302;51.446;-2.000;2024-01-16T02:32:13;100922.94;;;-7.53;100.00
55301;BME280;58302;51.446;-2.000;2024-01-16T02:34:40;100925.31;;;-7.50;100.00
55301;BME280;58302;51.446;-2.000;2024-01-16T02:37:06;100932.69;;;-7.44;100.00
55301;BME280;58302;51.446;-2.000;2024-01-16T02:39:32;100922.41;;;-7.37;100.00
55301;BME280;58302;51.446;-2.000;2024-01-16T02:41:58;100917.41;;;-7.31;100.00
55301;BME280;58302;51.446;-2.000;2024-01-16T02:44:24;100922.16;;;-7.25;100.00
55301;BME280;58302;51.446;-2.000;2024-01-16T02:46:50;100912.97;;;-7.21;100.00
55301;BME280;58302;51.446;-2.000;2024-01-16T02:49:16;100912.28;;;-7.13;100.00
55301;BME280;58302;51.446;-2.000;2024-01-16T02:51:42;100901.31;;;-7.08;100.00
55301;BME280;58302;51.446;-2.000;2024-01-16T02:54:08;100901.28;;;-6.99;100.00
55301;BME280;58302;51.446;-2.000;2024-01-16T02:56:34;100898.47;;;-6.87;100.00
55301;BME280;58302;51.446;-2.000;2024-01-16T02:59:00;100891.78;;;-6.72;100.00
55301;BME280;58302;51.446;-2.000;2024-01-16T03:01:26;100876.19;;;-6.66;100.00
55301;BME280;58302;51.446;-2.000;2024-01-16T03:03:53;100878.16;;;-6.68;100.00
55301;BME280;58302;51.446;-2.000;2024-01-16T03:06:25;100879.81;;;-6.76;100.00
55301;BME280;58302;51.446;-2.000;2024-01-16T03:08:51;100875.94;;;-6.82;100.00
55301;BME280;58302;51.446;-2.000;2024-01-16T03:11:17;100882.91;;;-6.81;100.00
55301;BME280;58302;51.446;-2.000;2024-01-16T03:13:44;100875.66;;;-6.79;100.00
55301;BME280;58302;51.446;-2.000;2024-01-16T03:16:11;100876.66;;;-6.80;100.00
55301;BME280;58302;51.446;-2.000;2024-01-16T03:18:38;100869.00;;;-6.83;100.00
55301;BME280;58302;51.446;-2.000;2024-01-16T03:21:05;100872.88;;;-6.87;100.00
55301;BME280;58302;51.446;-2.000;2024-01-16T03:23:32;100864.97;;;-6.87;100.00
55301;BME280;58302;51.446;-2.000;2024-01-16T03:25:58;100858.16;;;-6.90;100.00
55301;BME280;58302;51.446;-2.000;2024-01-16T03:28:24;100859.31;;;-6.92;100.00
55301;BME280;58302;51.446;-2.000;2024-01-16T03:30:50;100867.50;;;-6.95;100.00
55301;BME280;58302;51.446;-2.000;2024-01-16T03:33:16;100862.63;;;-7.00;100.00
55301;BME280;58302;51.446;-2.000;2024-01-16T03:35:42;100872.50;;;-7.02;100.00
55301;BME280;58302;51.446;-2.000;2024-01-16T03:38:09;100875.00;;;-7.00;100.00
55301;BME280;58302;51.446;-2.000;2024-01-16T03:40:35;100866.94;;;-6.99;100.00
55301;BME280;58302;51.446;-2.000;2024-01-16T03:43:01;100866.81;;;-6.97;100.00
55301;BME280;58302;51.446;-2.000;2024-01-16T03:45:27;100866.66;;;-6.96;100.00
55301;BME280;58302;51.446;-2.000;2024-01-16T03:47:54;100854.16;;;-7.03;100.00
55301;BME280;58302;51.446;-2.000;2024-01-16T03:50:21;100858.63;;;-7.13;100.00
55301;BME280;58302;51.446;-2.000;2024-01-16T03:52:47;100862.25;;;-7.24;100.00
55301;BME280;58302;51.446;-2.000;2024-01-16T03:55:13;100860.59;;;-7.35;100.00
55301;BME280;58302;51.446;-2.000;2024-01-16T03:57:40;100864.63;;;-7.40;100.00
55301;BME280;58302;51.446;-2.000;2024-01-16T04:00:08;100862.66;;;-7.48;100.00
55301;BME280;58302;51.446;-2.000;2024-01-16T04:02:38;100873.09;;;-7.56;100.00
55301;BME280;58302;51.446;-2.000;2024-01-16T04:05:04;100863.63;;;-7.59;100.00
55301;BME280;58302;51.446;-2.000;2024-01-16T04:07:31;100863.22;;;-7.54;100.00
55301;BME280;58302;51.446;-2.000;2024-01-16T04:09:57;100859.91;;;-7.47;100.00
55301;BME280;58302;51.446;-2.000;2024-01-16T04:12:23;100861.00;;;-7.49;100.00
55301;BME280;58302;51.446;-2.000;2024-01-16T04:14:49;100863.50;;;-7.57;100.00
55301;BME280;58302;51.446;-2.000;2024-01-16T04:17:15;100864.31;;;-7.47;100.00
55301;BME280;58302;51.446;-2.000;2024-01-16T04:19:41;100858.94;;;-7.36;100.00
55301;BME280;58302;51.446;-2.000;2024-01-16T04:22:07;100860.97;;;-7.20;100.00
55301;BME280;58302;51.446;-2.000;2024-01-16T04:24:33;100864.47;;;-7.20;100.00
55301;BME280;58302;51.446;-2.000;2024-01-16T04:26:58;100857.09;;;-7.26;100.00
55301;BME280;58302;51.446;-2.000;2024-01-16T04:29:24;100846.69;;;-7.37;100.00
55301;BME280;58302;51.446;-2.000;2024-01-16T04:31:50;100849.03;;;-7.44;100.00
55301;BME280;58302;51.446;-2.000;2024-01-16T04:34:16;100858.22;;;-7.48;100.00
55301;BME280;58302;51.446;-2.000;2024-01-16T04:36:42;100859.59;;;-7.53;100.00
55301;BME280;58302;51.446;-2.000;2024-01-16T04:39:09;100856.28;;;-7.55;100.00
55301;BME280;58302;51.446;-2.000;2024-01-16T04:41:35;100845.97;;;-7.58;100.00
55301;BME280;58302;51.446;-2.000;2024-01-16T04:44:01;100842.22;;;-7.65;100.00
55301;BME280;58302;51.446;-2.000;2024-01-16T04:46:34;100843.78;;;-7.63;100.00
55301;BME280;58302;51.446;-2.000;2024-01-16T04:49:00;100842.81;;;-7.62;100.00
55301;BME280;58302;51.446;-2.000;2024-01-16T04:51:26;100835.88;;;-7.63;100.00
55301;BME280;58302;51.446;-2.000;2024-01-16T04:53:52;100827.13;;;-7.63;100.00
55301;BME280;58302;51.446;-2.000;2024-01-16T04:56:18;100832.78;;;-7.58;100.00
55301;BME280;58302;51.446;-2.000;2024-01-16T04:58:45;100828.22;;;-7.56;100.00
55301;BME280;58302;51.446;-2.000;2024-01-16T05:01:12;100819.06;;;-7.52;100.00
55301;BME280;58302;51.446;-2.000;2024-01-16T05:03:38;100815.56;;;-7.53;100.00
55301;BME280;58302;51.446;-2.000;2024-01-16T05:06:05;100811.53;;;-7.47;100.00
55301;BME280;58302;51.446;-2.000;2024-01-16T05:08:31;100810.28;;;-7.43;100.00
55301;BME280;58302;51.446;-2.000;2024-01-16T05:10:58;100806.25;;;-7.37;100.00
55301;BME280;58302;51.446;-2.000;2024-01-16T05:13:24;100802.50;;;-7.35;100.00
55301;BME280;58302;51.446;-2.000;2024-01-16T05:15:51;100802.38;;;-7.33;100.00
55301;BME280;58302;51.446;-2.000;2024-01-16T05:18:17;100803.50;;;-7.36;100.00
55301;BME280;58302;51.446;-2.000;2024-01-16T05:20:43;100801.53;;;-7.44;100.00
55301;BME280;58302;51.446;-2.000;2024-01-16T05:23:09;100794.59;;;-7.54;100.00
55301;BME280;58302;51.446;-2.000;2024-01-16T05:25:35;100796.81;;;-7.59;100.00
55301;BME280;58302;51.446;-2.000;2024-01-16T05:28:01;100797.94;;;-7.62;100.00
55301;BME280;58302;51.446;-2.000;2024-01-16T05:30:27;100795.16;;;-7.60;100.00
55301;BME280;58302;51.446;-2.000;2024-01-16T05:32:52;100796.56;;;-7.56;100.00
55301;BME280;58302;51.446;-2.000;2024-01-16T05:35:19;100783.22;;;-7.45;100.00
55301;BME280;58302;51.446;-2.000;2024-01-16T05:37:45;100784.16;;;-7.36;100.00
55301;BME280;58302;51.446;-2.000;2024-01-16T05:40:11;100777.63;;;-7.32;100.00
55301;BME280;58302;51.446;-2.000;2024-01-16T05:42:38;100780.94;;;-7.21;100.00
55301;BME280;58302;51.446;-2.000;2024-01-16T05:45:05;100782.31;;;-7.17;100.00
55301;BME280;58302;51.446;-2.000;2024-01-16T05:47:31;100768.13;;;-7.06;100.00
55301;BME280;58302;51.446;-2.000;2024-01-16T05:49:58;100763.09;;;-6.99;100.00
55301;BME280;58302;51.446;-2.000;2024-01-16T05:52:24;100754.75;;;-6.95;100.00
55301;BME280;58302;51.446;-2.000;2024-01-16T05:54:50;100761.41;;;-6.91;100.00
55301;BME280;58302;51.446;-2.000;2024-01-16T05:57:16;100759.69;;;-6.82;100.00
55301;BME280;58302;51.446;-2.000;2024-01-16T05:59:42;100762.44;;;-6.74;100.00
55301;BME280;58302;51.446;-2.000;2024-01-16T06:02:08;100760.72;;;-6.65;100.00
55301;BME280;58302;51.446;-2.000;2024-01-16T06:04:35;100758.78;;;-6.63;100.00
55301;BME280;58302;51.446;-2.000;2024-01-16T06:07:01;100751.53;;;-6.61;100.00
55301;BME280;58302;51.446;-2.000;2024-01-16T06:09:29;100761.38;;;-6.53;100.00
55301;BME280;58302;51.446;-2.000;2024-01-16T06:11:55;100757.16;;;-6.46;100.00
55301;BME280;58302;51.446;-2.000;2024-01-16T06:14:21;100752.88;;;-6.47;100.00
55301;BME280;58302;51.446;-2.000;2024-01-16T06:16:47;100755.63;;;-6.49;100.00
55301;BME280;58302;51.446;-2.000;2024-01-16T06:19:14;100751.88;;;-6.46;100.00
55301;BME280;58302;51.446;-2.000;2024-01-16T06:21:42;100759.22;;;-6.40;100.00
55301;BME280;58302;51.446;-2.000;2024-01-16T06:24:08;100760.28;;;-6.33;100.00
55301;BME280;58302;51.446;-2.000;2024-01-16T06:26:34;100755.78;;;-6.23;100.00
55301;BME280;58302;51.446;-2.000;2024-01-16T06:29:00;100752.53;;;-6.17;100.00
55301;BME280;58302;51.446;-2.000;2024-01-16T06:31:26;100759.03;;;-6.11;100.00
55301;BME280;58302;51.446;-2.000;2024-01-16T06:33:52;100750.38;;;-6.03;100.00
55301;BME280;58302;51.446;-2.000;2024-01-16T06:36:19;100751.25;;;-5.95;100.00
55301;BME280;58302;51.446;-2.000;2024-01-16T06:38:45;100742.69;;;-5.89;100.00
55301;BME280;58302;51.446;-2.000;2024-01-16T06:41:11;100732.47;;;-5.84;100.00
55301;BME280;58302;51.446;-2.000;2024-01-16T06:43:37;100735.34;;;-5.77;100.00
55301;BME280;58302;51.446;-2.000;2024-01-16T06:46:03;100729.47;;;-5.71;100.00
55301;BME280;58302;51.446;-2.000;2024-01-16T06:48:30;100722.41;;;-5.62;100.00
55301;BME280;58302;51.446;-2.000;2024-01-16T06:50:56;100712.03;;;-5.56;100.00
55301;BME280;58302;51.446;-2.000;2024-01-16T06:53:22;100705.28;;;-5.50;100.00
55301;BME280;58302;51.446;-2.000;2024-01-16T06:55:50;100698.75;;;-5.38;100.00
55301;BME280;58302;51.446;-2.000;2024-01-16T06:58:16;100693.69;;;-5.23;100.00
55301;BME280;58302;51.446;-2.000;2024-01-16T07:00:42;100672.78;;;-5.00;100.00
55301;BME280;58302;51.446;-2.000;2024-01-16T07:03:08;100670.19;;;-4.84;100.00
55301;BME280;58302;51.446;-2.000;2024-01-16T07:05:35;100671.72;;;-4.73;100.00
55301;BME280;58302;51.446;-2.000;2024-01-16T07:08:01;100663.00;;;-4.65;100.00
55301;BME280;58302;51.446;-2.000;2024-01-16T07:10:28;100650.56;;;-4.57;100.00
55301;BME280;58302;51.446;-2.000;2024-01-16T07:12:54;100662.22;;;-4.49;100.00
55301;BME280;58302;51.446;-2.000;2024-01-16T07:15:22;100654.59;;;-4.44;100.00
55301;BME280;58302;51.446;-2.000;2024-01-16T07:17:47;100642.00;;;-4.42;100.00
55301;BME280;58302;51.446;-2.000;2024-01-16T07:20:14;100633.56;;;-4.38;100.00
55301;BME280;58302;51.446;-2.000;2024-01-16T07:22:40;100637.38;;;-4.32;100.00
55301;BME280;58302;51.446;-2.000;2024-01-16T07:25:07;100625.59;;;-4.30;100.00
55301;BME280;58302;51.446;-2.000;2024-01-16T07:27:33;100615.50;;;-4.26;100.00
55301;BME280;58302;51.446;-2.000;2024-01-16T07:30:03;100616.81;;;-4.22;100.00
55301;BME280;58302;51.446;-2.000;2024-01-16T07:32:31;100610.50;;;-4.13;100.00
55301;BME280;58302;51.446;-2.000;2024-01-16T07:34:57;100608.34;;;-4.01;100.00
55301;BME280;58302;51.446;-2.000;2024-01-16T07:37:23;100603.03;;;-3.93;100.00
55301;BME280;58302;51.446;-2.000;2024-01-16T07:39:49;100581.28;;;-3.80;100.00
55301;BME280;58302;51.446;-2.000;2024-01-16T07:42:15;100580.59;;;-3.74;100.00
55301;BME280;58302;51.446;-2.000;2024-01-16T07:44:41;100565.00;;;-3.69;100.00
55301;BME280;58302;51.446;-2.000;2024-01-16T07:47:07;100557.53;;;-3.65;100.00
55301;BME280;58302;51.446;-2.000;2024-01-16T07:49:34;100557.34;;;-3.64;100.00
55301;BME280;58302;51.446;-2.000;2024-01-16T07:52:00;100552.53;;;-3.60;100.00
55301;BME280;58302;51.446;-2.000;2024-01-16T07:54:26;100544.38;;;-3.59;100.00
55301;BME280;58302;51.446;-2.000;2024-01-16T07:56:52;100535.09;;;-3.55;100.00
55301;BME280;58302;51.446;-2.000;2024-01-16T07:59:18;100515.97;;;-3.50;100.00
55301;BME280;58302;51.446;-2.000;2024-01-16T08:01:44;100512.44;;;-3.42;100.00
55301;BME280;58302;51.446;-2.000;2024-01-16T08:04:11;100505.63;;;-3.37;100.00
55301;BME280;58302;51.446;-2.000;2024-01-16T08:06:37;100494.41;;;-3.24;100.00
55301;BME280;58302;51.446;-2.000;2024-01-16T08:09:03;100485.59;;;-3.16;100.00
55301;BME280;58302;51.446;-2.000;2024-01-16T08:11:29;100480.75;;;-3.13;100.00
55301;BME280;58302;51.446;-2.000;2024-01-16T08:13:57;100476.09;;;-3.11;100.00
55301;BME280;58302;51.446;-2.000;2024-01-16T08:16:23;100468.09;;;-3.11;100.00
55301;BME280;58302;51.446;-2.000;2024-01-16T08:18:49;100462.16;;;-3.13;100.00
55301;BME280;58302;51.446;-2.000;2024-01-16T08:21:15;100464.09;;;-3.07;100.00
55301;BME280;58302;51.446;-2.000;2024-01-16T08:23:41;100457.41;;;-3.03;100.00
55301;BME280;58302;51.446;-2.000;2024-01-16T08:26:07;100454.06;;;-2.97;100.00
55301;BME280;58302;51.446;-2.000;2024-01-16T08:28:33;100457.00;;;-2.92;100.00
55301;BME280;58302;51.446;-2.000;2024-01-16T08:30:59;100455.94;;;-2.82;100.00
55301;BME280;58302;51.446;-2.000;2024-01-16T08:33:25;100454.69;;;-2.72;100.00
55301;BME280;58302;51.446;-2.000;2024-01-16T08:35:51;100452.38;;;-2.52;100.00
55301;BME280;58302;51.446;-2.000;2024-01-16T08:38:17;100451.78;;;-2.24;100.00
55301;BME280;58302;51.446;-2.000;2024-01-16T08:40:43;100442.91;;;-2.02;100.00
55301;BME280;58302;51.446;-2.000;2024-01-16T08:43:09;100440.66;;;-1.83;100.00
55301;BME280;58302;51.446;-2.000;2024-01-16T08:45:35;100445.34;;;-1.71;100.00
55301;BME280;58302;51.446;-2.000;2024-01-16T08:48:01;100435.06;;;-1.74;100.00
55301;BME280;58302;51.446;-2.000;2024-01-16T08:50:28;100433.78;;;-1.78;100.00
55301;BME280;58302;51.446;-2.000;2024-01-16T08:52:54;100436.72;;;-1.88;100.00
55301;BME280;58302;51.446;-2.000;2024-01-16T08:55:20;100434.72;;;-2.00;100.00
55301;BME280;58302;51.446;-2.000;2024-01-16T08:57:46;100433.97;;;-2.09;100.00
55301;BME280;58302;51.446;-2.000;2024-01-16T09:00:13;100427.91;;;-2.18;100.00
55301;BME280;58302;51.446;-2.000;2024-01-16T09:02:39;100427.53;;;-2.15;100.00
55301;BME280;58302;51.446;-2.000;2024-01-16T09:05:05;100434.53;;;-2.14;100.00
55301;BME280;58302;51.446;-2.000;2024-01-16T09:07:31;100429.22;;;-2.14;100.00
55301;BME280;58302;51.446;-2.000;2024-01-16T09:09:57;100428.00;;;-2.11;100.00
55301;BME280;58302;51.446;-2.000;2024-01-16T09:12:23;100432.69;;;-1.98;100.00
55301;BME280;58302;51.446;-2.000;2024-01-16T09:14:49;100425.34;;;-1.96;100.00
55301;BME280;58302;51.446;-2.000;2024-01-16T09:17:15;100425.31;;;-1.81;100.00
55301;BME280;58302;51.446;-2.000;2024-01-16T09:19:41;100419.28;;;-1.39;100.00
55301;BME280;58302;51.446;-2.000;2024-01-16T09:22:08;100420.38;;;-0.69;100.00
55301;BME280;58302;51.446;-2.000;2024-01-16T09:24:34;100410.06;;;0.12;100.00
55301;BME280;58302;51.446;-2.000;2024-01-16T09:27:00;100405.91;;;0.57;100.00
55301;BME280;58302;51.446;-2.000;2024-01-16T09:29:28;100397.66;;;0.52;100.00
55301;BME280;58302;51.446;-2.000;2024-01-16T09:31:53;100405.34;;;0.20;100.00
55301;BME280;58302;51.446;-2.000;2024-01-16T09:34:19;100400.69;;;-0.06;100.00
55301;BME280;58302;51.446;-2.000;2024-01-16T09:36:45;100410.53;;;-0.41;100.00
55301;BME280;58302;51.446;-2.000;2024-01-16T09:39:12;100404.91;;;-0.52;100.00
55301;BME280;58302;51.446;-2.000;2024-01-16T09:41:40;100410.94;;;-0.44;100.00
55301;BME280;58302;51.446;-2.000;2024-01-16T09:44:08;100409.63;;;-0.55;100.00
55301;BME280;58302;51.446;-2.000;2024-01-16T09:46:40;100408.13;;;-0.64;100.00
55301;BME280;58302;51.446;-2.000;2024-01-16T09:49:07;100409.81;;;-0.56;100.00
55301;BME280;58302;51.446;-2.000;2024-01-16T09:51:34;100411.72;;;-0.22;100.00
55301;BME280;58302;51.446;-2.000;2024-01-16T09:54:01;100413.69;;;0.45;100.00
55301;BME280;58302;51.446;-2.000;2024-01-16T09:56:28;100417.94;;;0.94;100.00
55301;BME280;58302;51.446;-2.000;2024-01-16T09:59:03;100416.94;;;1.28;100.00
55301;BME280;58302;51.446;-2.000;2024-01-16T10:01:33;100433.00;;;1.62;100.00
55301;BME280;58302;51.446;-2.000;2024-01-16T10:04:00;100446.16;;;1.96;100.00
55301;BME280;58302;51.446;-2.000;2024-01-16T10:06:31;100484.06;;;2.26;100.00
55301;BME280;58302;51.446;-2.000;2024-01-16T10:08:57;100535.16;;;2.45;100.00
55301;BME280;58302;51.446;-2.000;2024-01-16T10:11:24;100594.53;;;2.68;100.00
55301;BME280;58302;51.446;-2.000;2024-01-16T10:13:50;100658.47;;;2.98;100.00
55301;BME280;58302;51.446;-2.000;2024-01-16T10:16:18;100732.19;;;3.02;100.00
55301;BME280;58302;51.446;-2.000;2024-01-16T10:18:44;100787.94;;;3.13;100.00
55301;BME280;58302;51.446;-2.000;2024-01-16T10:21:21;100830.28;;;3.31;100.00
55301;BME280;58302;51.446;-2.000;2024-01-16T10:23:49;100865.78;;;3.66;100.00
55301;BME280;58302;51.446;-2.000;2024-01-16T10:26:16;100885.59;;;3.78;100.00
55301;BME280;58302;51.446;-2.000;2024-01-16T10:28:47;100109.69;;;3.72;100.00
55301;BME280;58302;51.446;-2.000;2024-01-16T10:31:14;99537.06;;;3.57;100.00
55301;BME280;58302;51.446;-2.000;2024-01-16T10:33:41;99394.00;;;3.83;100.00
55301;BME280;58302;51.446;-2.000;2024-01-16T10:36:11;99199.94;;;4.03;100.00
55301;BME280;58302;51.446;-2.000;2024-01-16T10:38:40;99188.66;;;4.06;100.00
55301;BME280;58302;51.446;-2.000;2024-01-16T10:41:09;99193.38;;;4.21;100.00
55301;BME280;58302;51.446;-2.000;2024-01-16T10:43:37;99224.44;;;4.07;100.00
55301;BME280;58302;51.446;-2.000;2024-01-16T10:46:15;99234.72;;;4.15;100.00
55301;BME280;58302;51.446;-2.000;2024-01-16T10:48:59;99261.22;;;4.55;100.00
55301;BME280;58302;51.446;-2.000;2024-01-16T10:51:29;99299.59;;;4.45;100.00
55301;BME280;58302;51.446;-2.000;2024-01-16T10:54:01;99315.06;;;4.33;100.00
55301;BME280;58302;51.446;-2.000;2024-01-16T10:56:30;99314.84;;;4.13;100.00
55301;BME280;58302;51.446;-2.000;2024-01-16T10:59:30;99311.84;;;4.09;100.00
55301;BME280;58302;51.446;-2.000;2024-01-16T11:02:01;99313.16;;;4.07;100.00
55301;BME280;58302;51.446;-2.000;2024-01-16T11:04:30;99288.38;;;4.54;100.00
55301;BME280;58302;51.446;-2.000;2024-01-16T11:06:58;99296.22;;;4.87;100.00
55301;BME280;58302;51.446;-2.000;2024-01-16T11:09:26;99306.97;;;5.19;100.00
55301;BME280;58302;51.446;-2.000;2024-01-16T11:11:53;99334.69;;;5.52;100.00
55301;BME280;58302;51.446;-2.000;2024-01-16T11:14:22;99341.44;;;5.49;100.00
55301;BME280;58302;51.446;-2.000;2024-01-16T11:16:49;99358.06;;;5.84;100.00
55301;BME280;58302;51.446;-2.000;2024-01-16T11:19:17;99393.03;;;6.05;100.00
55301;BME280;58302;51.446;-2.000;2024-01-16T11:21:45;99440.38;;;5.91;100.00
55301;BME280;58302;51.446;-2.000;2024-01-16T11:24:12;99420.34;;;6.24;100.00
55301;BME280;58302;51.446;-2.000;2024-01-16T11:26:43;99454.25;;;6.57;100.00
55301;BME280;58302;51.446;-2.000;2024-01-16T11:31:57;99522.09;;;6.76;100.00
55301;BME280;58302;51.446;-2.000;2024-01-16T11:37:13;99568.38;;;6.95;100.00
55301;BME280;58302;51.446;-2.000;2024-01-16T11:39:39;99598.63;;;6.97;100.00
55301;BME280;58302;51.446;-2.000;2024-01-16T11:42:09;99620.66;;;6.79;100.00
55301;BME280;58302;51.446;-2.000;2024-01-16T11:47:04;99623.66;;;6.82;100.00
55301;BME280;58302;51.446;-2.000;2024-01-16T11:49:30;99633.56;;;7.09;100.00
55301;BME280;58302;51.446;-2.000;2024-01-16T11:52:00;99645.84;;;7.37;100.00
55301;BME280;58302;51.446;-2.000;2024-01-16T11:54:26;99680.75;;;7.44;100.00
55301;BME280;58302;51.446;-2.000;2024-01-16T12:00:01;99761.22;;;7.84;100.00
55301;BME280;58302;51.446;-2.000;2024-01-16T12:03:03;99789.28;;;7.68;100.00
55301;BME280;58302;51.446;-2.000;2024-01-16T12:05:29;99784.88;;;7.56;100.00
55301;BME280;58302;51.446;-2.000;2024-01-16T12:07:55;99783.38;;;7.76;100.00
55301;BME280;58302;51.446;-2.000;2024-01-16T12:10:24;99803.53;;;8.10;100.00
55301;BME280;58302;51.446;-2.000;2024-01-16T12:12:52;99835.00;;;8.27;100.00
55301;BME280;58302;51.446;-2.000;2024-01-16T12:15:22;99844.44;;;7.66;100.00
55301;BME280;58302;51.446;-2.000;2024-01-16T12:18:01;99853.06;;;6.94;100.00
55301;BME280;58302;51.446;-2.000;2024-01-16T12:20:34;99822.13;;;6.53;100.00
55301;BME280;58302;51.446;-2.000;2024-01-16T12:23:02;99797.50;;;6.71;100.00
55301;BME280;58302;51.446;-2.000;2024-01-16T12:25:31;99795.34;;;6.46;100.00
55301;BME280;58302;51.446;-2.000;2024-01-16T12:28:01;99763.53;;;6.80;100.00
55301;BME280;58302;51.446;-2.000;2024-01-16T12:30:36;99759.47;;;7.10;100.00
55301;BME280;58302;51.446;-2.000;2024-01-16T12:33:10;99772.28;;;7.30;100.00
55301;BME280;58302;51.446;-2.000;2024-01-16T12:35:41;99794.41;;;7.22;100.00
55301;BME280;58302;51.446;-2.000;2024-01-16T12:38:15;99808.69;;;7.17;100.00
55301;BME280;58302;51.446;-2.000;2024-01-16T12:40:49;99795.78;;;7.72;100.00
55301;BME280;58302;51.446;-2.000;2024-01-16T12:43:19;99819.94;;;7.88;100.00